Time;durP1;ratioP1;P1;durP2;ratioP2;P2;SDS_P1;SDS_P2;PMS_P1;PMS_P2;Temp;Humidity;BMP_temperature;BMP_pressure;BME280_temperature;BME280_humidity;BME280_pressure;Samples;Min_cycle;Max_cycle;Signal;HPM_P1;HPM_P2
2023/04/22 00:00:11;;;;;;;9.98;8.80;;;;;;;;;;5053048;28;20084;-56
2023/04/22 00:02:37;;;;;;;10.55;8.10;;;;;;;;;;5058315;28;20136;-56
2023/04/22 00:05:05;;;;;;;9.10;8.15;;;;;;;;;;5062408;28;20063;-57
2023/04/22 00:07:31;;;;;;;10.15;7.97;;;;;;;;;;5058272;28;20058;-57
2023/04/22 00:09:58;;;;;;;10.50;8.50;;;;;;;;;;5054819;28;20049;-58
2023/04/22 00:12:24;;;;;;;10.45;8.18;;;;;;;;;;5062890;28;20053;-56
2023/04/22 00:14:51;;;;;;;10.82;8.40;;;;;;;;;;5059004;28;20479;-58
2023/04/22 00:17:17;;;;;;;12.55;8.13;;;;;;;;;;5054085;28;20719;-57
2023/04/22 00:19:43;;;;;;;9.82;8.13;;;;;;;;;;5062921;28;20056;-58
2023/04/22 00:22:10;;;;;;;10.57;8.73;;;;;;;;;;5058748;28;20061;-58
2023/04/22 00:24:36;;;;;;;11.43;9.65;;;;;;;;;;5061511;28;20589;-57
2023/04/22 00:27:03;;;;;;;15.00;9.48;;;;;;;;;;5061396;28;20049;-57
2023/04/22 00:29:29;;;;;;;10.52;8.85;;;;;;;;;;5059208;28;20045;-54
2023/04/22 00:31:55;;;;;;;11.20;9.35;;;;;;;;;;5061797;28;20105;-58
2023/04/22 00:34:22;;;;;;;17.52;9.50;;;;;;;;;;5055292;28;20060;-57
2023/04/22 00:36:50;;;;;;;11.80;9.55;;;;;;;;;;5059086;28;20049;-58
2023/04/22 00:39:16;;;;;;;10.80;9.18;;;;;;;;;;5055468;28;20057;-59
2023/04/22 00:41:42;;;;;;;11.88;8.77;;;;;;;;;;5053931;28;20041;-55
2023/04/22 00:44:12;;;;;;;10.93;9.20;;;;;;;;;;5049268;28;20065;-54
2023/04/22 00:46:38;;;;;;;12.00;9.30;;;;;;;;;;5061292;28;20059;-55
2023/04/22 00:49:05;;;;;;;14.23;10.20;;;;;;;;;;5061394;28;20511;-57
2023/04/22 00:51:32;;;;;;;10.05;9.02;;;;;;;;;;5060969;28;20215;-59
2023/04/22 00:54:00;;;;;;;11.68;9.55;;;;;;;;;;5059463;28;20507;-56
2023/04/22 00:56:27;;;;;;;14.63;10.57;;;;;;;;;;5061699;28;20474;-56
2023/04/22 00:58:54;;;;;;;14.95;9.05;;;;;;;;;;5067535;28;20057;-56
2023/04/22 01:01:20;;;;;;;12.02;10.02;;;;;;;;;;5070376;28;20049;-58
2023/04/22 01:03:48;;;;;;;12.88;9.60;;;;;;;;;;5055217;28;20061;-57
2023/04/22 01:06:17;;;;;;;12.60;8.85;;;;;;;;;;5045468;28;20053;-58
2023/04/22 01:08:44;;;;;;;16.10;10.20;;;;;;;;;;5054443;28;20533;-55
2023/04/22 01:11:11;;;;;;;12.10;9.70;;;;;;;;;;5066429;28;20052;-58
2023/04/22 01:13:37;;;;;;;11.07;9.65;;;;;;;;;;5059878;28;20057;-58
2023/04/22 01:16:04;;;;;;;17.42;9.43;;;;;;;;;;5060363;28;20052;-55
2023/04/22 01:18:31;;;;;;;10.18;8.90;;;;;;;;;;5057670;28;20191;-57
2023/04/22 01:20:57;;;;;;;12.95;9.68;;;;;;;;;;5061427;28;20061;-56
2023/04/22 01:23:24;;;;;;;14.77;10.20;;;;;;;;;;5060413;28;20052;-58
2023/04/22 01:25:51;;;;;;;12.43;9.25;;;;;;;;;;5046663;28;20061;-58
2023/04/22 01:28:17;;;;;;;13.27;9.63;;;;;;;;;;5048758;28;20184;-56
2023/04/22 01:30:44;;;;;;;10.02;8.95;;;;;;;;;;5057097;28;20053;-58
2023/04/22 01:33:11;;;;;;;11.68;9.10;;;;;;;;;;5050001;28;20073;-55
2023/04/22 01:35:37;;;;;;;11.27;9.02;;;;;;;;;;5045005;28;20059;-58
2023/04/22 01:38:05;;;;;;;14.43;9.15;;;;;;;;;;5060890;28;20052;-54
2023/04/22 01:40:32;;;;;;;12.45;9.45;;;;;;;;;;5059137;28;20437;-58
2023/04/22 01:42:59;;;;;;;11.27;9.27;;;;;;;;;;5060219;28;20142;-57
2023/04/22 01:45:26;;;;;;;10.18;9.13;;;;;;;;;;5074524;28;20483;-58
2023/04/22 01:47:53;;;;;;;11.65;9.15;;;;;;;;;;5051506;28;20081;-56
2023/04/22 01:50:20;;;;;;;11.93;8.77;;;;;;;;;;5058698;28;20507;-57
2023/04/22 01:52:47;;;;;;;11.77;9.23;;;;;;;;;;5060323;28;20053;-58
2023/04/22 01:55:13;;;;;;;13.70;8.65;;;;;;;;;;5056273;28;20049;-58
2023/04/22 01:57:40;;;;;;;10.48;9.07;;;;;;;;;;5055601;28;20060;-56
2023/04/22 02:00:07;;;;;;;14.98;9.65;;;;;;;;;;5058989;28;20057;-58
2023/04/22 02:02:33;;;;;;;11.32;8.95;;;;;;;;;;5060456;28;20041;-57
2023/04/22 02:05:00;;;;;;;11.02;9.10;;;;;;;;;;5053902;28;20507;-58
2023/04/22 02:07:26;;;;;;;12.63;8.82;;;;;;;;;;5062071;28;20049;-58
2023/04/22 02:09:53;;;;;;;10.60;9.00;;;;;;;;;;5076734;28;20055;-59
2023/04/22 02:12:19;;;;;;;10.32;8.80;;;;;;;;;;5063910;28;20059;-58
2023/04/22 02:14:45;;;;;;;12.98;8.80;;;;;;;;;;5062123;28;20086;-58
2023/04/22 02:17:12;;;;;;;11.45;9.07;;;;;;;;;;5061853;28;20087;-56
2023/04/22 02:19:38;;;;;;;10.82;8.35;;;;;;;;;;5080025;28;20765;-57
2023/04/22 02:22:05;;;;;;;12.88;9.20;;;;;;;;;;5062744;28;20061;-54
2023/04/22 02:24:31;;;;;;;11.38;9.32;;;;;;;;;;5063117;28;20084;-59
2023/04/22 02:26:57;;;;;;;11.20;9.48;;;;;;;;;;5062191;28;20493;-58
2023/04/22 02:29:24;;;;;;;11.27;9.68;;;;;;;;;;5061359;28;20053;-58
2023/04/22 02:31:50;;;;;;;13.18;10.27;;;;;;;;;;5054478;28;20053;-57
2023/04/22 02:34:17;;;;;;;11.68;9.55;;;;;;;;;;5058978;28;20076;-58
2023/04/22 02:36:43;;;;;;;12.77;9.38;;;;;;;;;;5060245;28;20143;-57
2023/04/22 02:39:10;;;;;;;9.45;8.27;;;;;;;;;;5060060;28;20318;-58
2023/04/22 02:41:36;;;;;;;11.38;9.55;;;;;;;;;;5054129;28;20045;-58
2023/04/22 02:44:03;;;;;;;12.50;10.30;;;;;;;;;;5060412;28;20057;-60
2023/04/22 02:46:29;;;;;;;10.68;9.18;;;;;;;;;;5063451;28;20068;-57
2023/04/22 02:48:55;;;;;;;10.27;9.15;;;;;;;;;;5054009;28;20053;-59
2023/04/22 02:51:22;;;;;;;12.90;9.68;;;;;;;;;;5063547;28;20060;-56
2023/04/22 02:53:48;;;;;;;12.40;9.20;;;;;;;;;;5072592;28;20053;-58
2023/04/22 02:56:14;;;;;;;12.18;9.45;;;;;;;;;;5056530;28;20574;-58
2023/04/22 02:58:41;;;;;;;11.65;10.20;;;;;;;;;;5065082;28;20068;-56
2023/04/22 03:01:07;;;;;;;13.48;9.63;;;;;;;;;;5066164;28;20077;-58
2023/04/22 03:03:34;;;;;;;11.05;9.30;;;;;;;;;;5063235;28;20063;-57
2023/04/22 03:06:00;;;;;;;10.65;8.55;;;;;;;;;;5055903;28;20053;-58
2023/04/22 03:08:27;;;;;;;12.27;10.05;;;;;;;;;;5051557;28;20049;-57
2023/04/22 03:10:54;;;;;;;14.10;9.07;;;;;;;;;;5064173;28;20053;-58
2023/04/22 03:13:20;;;;;;;11.90;9.43;;;;;;;;;;5059079;28;20049;-55
2023/04/22 03:15:46;;;;;;;13.05;10.10;;;;;;;;;;5071243;28;20147;-58
2023/04/22 03:18:13;;;;;;;11.90;10.05;;;;;;;;;;5068973;28;20127;-57
2023/04/22 03:20:39;;;;;;;11.75;10.00;;;;;;;;;;5058245;28;20063;-57
2023/04/22 03:23:06;;;;;;;10.45;9.35;;;;;;;;;;5053114;28;20581;-57
2023/04/22 03:25:34;;;;;;;13.18;10.23;;;;;;;;;;5068096;28;20174;-57
2023/04/22 03:28:00;;;;;;;13.90;9.70;;;;;;;;;;5052186;28;20353;-58
2023/04/22 03:30:26;;;;;;;10.63;9.13;;;;;;;;;;5051539;28;20143;-56
2023/04/22 03:32:53;;;;;;;12.57;10.10;;;;;;;;;;5058379;28;20194;-58
2023/04/22 03:35:19;;;;;;;13.05;10.23;;;;;;;;;;5062954;28;20053;-57
2023/04/22 03:37:45;;;;;;;12.43;10.07;;;;;;;;;;5049391;28;20513;-58
2023/04/22 03:40:12;;;;;;;15.05;10.48;;;;;;;;;;5043258;28;20057;-58
2023/04/22 03:42:39;;;;;;;12.07;9.73;;;;;;;;;;5053168;28;20064;-56
2023/04/22 03:45:05;;;;;;;11.77;9.85;;;;;;;;;;5062340;28;20053;-57
2023/04/22 03:47:31;;;;;;;12.15;10.38;;;;;;;;;;5061075;28;20527;-57
2023/04/22 03:49:58;;;;;;;11.43;9.80;;;;;;;;;;5056954;28;20049;-58
2023/04/22 03:52:25;;;;;;;15.57;10.30;;;;;;;;;;5054212;28;20128;-58
2023/04/22 03:54:51;;;;;;;12.93;10.05;;;;;;;;;;5054713;28;20176;-57
2023/04/22 03:57:17;;;;;;;13.18;10.43;;;;;;;;;;5060090;28;20067;-57
2023/04/22 03:59:44;;;;;;;12.10;9.50;;;;;;;;;;5057211;28;20048;-58
2023/04/22 04:02:10;;;;;;;11.82;9.63;;;;;;;;;;5057406;28;20483;-58
2023/04/22 04:04:37;;;;;;;11.63;10.20;;;;;;;;;;5047843;28;20053;-58
2023/04/22 04:07:03;;;;;;;12.90;9.98;;;;;;;;;;5067389;28;20049;-57
2023/04/22 04:09:30;;;;;;;12.02;10.38;;;;;;;;;;5058160;28;20136;-56
2023/04/22 04:11:56;;;;;;;13.95;10.95;;;;;;;;;;5068388;28;20581;-59
2023/04/22 04:14:23;;;;;;;14.18;11.68;;;;;;;;;;5046642;28;20575;-56
2023/04/22 04:16:50;;;;;;;14.15;10.63;;;;;;;;;;5062502;28;20453;-56
2023/04/22 04:19:16;;;;;;;14.35;10.45;;;;;;;;;;5064688;28;20056;-56
2023/04/22 04:21:42;;;;;;;14.32;11.40;;;;;;;;;;5059854;28;20088;-57
2023/04/22 04:24:09;;;;;;;14.45;10.25;;;;;;;;;;5070746;28;20583;-59
2023/04/22 04:26:36;;;;;;;15.32;11.05;;;;;;;;;;5073870;28;20053;-55
2023/04/22 04:29:04;;;;;;;13.43;10.07;;;;;;;;;;5052975;28;20721;-57
2023/04/22 04:31:31;;;;;;;14.50;10.93;;;;;;;;;;5060005;28;20057;-58
2023/04/22 04:33:58;;;;;;;15.98;11.20;;;;;;;;;;5045633;28;20078;-58
2023/04/22 04:36:27;;;;;;;14.05;10.93;;;;;;;;;;5075217;28;20072;-57
2023/04/22 04:38:54;;;;;;;13.63;10.07;;;;;;;;;;5062962;28;20479;-58
2023/04/22 04:41:21;;;;;;;12.80;10.10;;;;;;;;;;5053370;28;20610;-58
2023/04/22 04:43:47;;;;;;;14.35;11.60;;;;;;;;;;5055232;28;20057;-58
2023/04/22 04:46:15;;;;;;;14.73;9.95;;;;;;;;;;5060785;28;20059;-58
2023/04/22 04:48:42;;;;;;;13.80;11.25;;;;;;;;;;5061357;28;20057;-60
2023/04/22 04:51:10;;;;;;;14.75;11.85;;;;;;;;;;5059464;28;20063;-59
2023/04/22 04:53:36;;;;;;;14.60;11.02;;;;;;;;;;5053989;28;20096;-57
2023/04/22 04:56:03;;;;;;;14.30;11.15;;;;;;;;;;5062622;28;20103;-58
2023/04/22 04:58:29;;;;;;;15.38;11.00;;;;;;;;;;5058188;28;20080;-58
2023/04/22 05:00:55;;;;;;;14.30;10.93;;;;;;;;;;5062713;28;20057;-58
2023/04/22 05:03:22;;;;;;;16.75;11.90;;;;;;;;;;5064589;28;20066;-58
2023/04/22 05:05:48;;;;;;;16.15;11.73;;;;;;;;;;5063174;28;20055;-56
2023/04/22 05:08:14;;;;;;;21.38;12.88;;;;;;;;;;5060337;28;20056;-58
2023/04/22 05:10:41;;;;;;;14.50;10.80;;;;;;;;;;5067659;28;20053;-57
2023/04/22 05:13:07;;;;;;;12.35;10.70;;;;;;;;;;5059955;28;20049;-58
2023/04/22 05:15:34;;;;;;;17.00;12.57;;;;;;;;;;5064197;28;20700;-57
2023/04/22 05:18:00;;;;;;;15.45;11.32;;;;;;;;;;5076877;28;20061;-57
2023/04/22 05:20:27;;;;;;;16.60;11.90;;;;;;;;;;5066738;28;20060;-59
2023/04/22 05:22:53;;;;;;;16.95;11.68;;;;;;;;;;5060549;28;20468;-59
2023/04/22 05:25:20;;;;;;;15.23;11.88;;;;;;;;;;5063142;28;20049;-59
2023/04/22 05:27:46;;;;;;;19.75;12.68;;;;;;;;;;5070758;28;20053;-57
2023/04/22 05:30:12;;;;;;;18.05;13.02;;;;;;;;;;5049338;28;20144;-55
2023/04/22 05:32:39;;;;;;;17.50;12.18;;;;;;;;;;5053843;28;20556;-58
2023/04/22 05:35:05;;;;;;;17.02;13.05;;;;;;;;;;5048424;28;20578;-58
2023/04/22 05:37:32;;;;;;;17.27;12.40;;;;;;;;;;5063730;28;20072;-59
2023/04/22 05:39:58;;;;;;;17.83;12.15;;;;;;;;;;5051334;28;20041;-56
2023/04/22 05:42:25;;;;;;;15.60;12.50;;;;;;;;;;5062389;28;20432;-58
2023/04/22 05:44:51;;;;;;;17.83;12.77;;;;;;;;;;5059767;28;20542;-58
2023/04/22 05:47:18;;;;;;;17.88;12.27;;;;;;;;;;5063518;28;20057;-57
2023/04/22 05:49:44;;;;;;;18.15;13.43;;;;;;;;;;5059923;28;20483;-59
2023/04/22 05:52:10;;;;;;;15.57;12.88;;;;;;;;;;5060782;28;20132;-56
2023/04/22 05:54:37;;;;;;;16.98;13.10;;;;;;;;;;5066937;28;20086;-58
2023/04/22 05:57:03;;;;;;;17.45;13.05;;;;;;;;;;5075073;28;20057;-57
2023/04/22 05:59:30;;;;;;;18.92;13.32;;;;;;;;;;5063548;28;20450;-57
2023/04/22 06:01:56;;;;;;;16.30;12.90;;;;;;;;;;5055892;28;20056;-56
2023/04/22 06:04:23;;;;;;;20.98;13.48;;;;;;;;;;5057028;28;20052;-59
2023/04/22 06:06:52;;;;;;;21.00;14.10;;;;;;;;;;5058104;28;20510;-59
2023/04/22 06:09:20;;;;;;;20.48;14.73;;;;;;;;;;5054955;28;20052;-59
2023/04/22 06:11:46;;;;;;;24.90;15.20;;;;;;;;;;5074629;28;20604;-58
2023/04/22 06:14:13;;;;;;;26.85;16.25;;;;;;;;;;5054987;28;20081;-59
2023/04/22 06:16:39;;;;;;;23.48;14.50;;;;;;;;;;5057491;28;20057;-58
2023/04/22 06:19:06;;;;;;;21.85;15.95;;;;;;;;;;5058773;28;20055;-58
2023/04/22 06:21:33;;;;;;;21.10;15.82;;;;;;;;;;5065486;28;20136;-53
2023/04/22 06:24:00;;;;;;;23.42;15.80;;;;;;;;;;5045173;28;20058;-58
2023/04/22 06:26:27;;;;;;;24.20;16.10;;;;;;;;;;5059575;28;20148;-58
2023/04/22 06:28:53;;;;;;;23.55;15.65;;;;;;;;;;5057824;28;20049;-58
2023/04/22 06:31:19;;;;;;;21.52;16.52;;;;;;;;;;5069114;28;20055;-57
2023/04/22 06:33:46;;;;;;;22.58;15.90;;;;;;;;;;5054019;28;20057;-58
2023/04/22 06:36:12;;;;;;;26.17;16.63;;;;;;;;;;5056970;28;20063;-59
2023/04/22 06:38:39;;;;;;;26.98;16.92;;;;;;;;;;5060565;28;20059;-56
2023/04/22 06:41:05;;;;;;;21.23;15.73;;;;;;;;;;5064544;28;20116;-57
2023/04/22 06:43:32;;;;;;;25.95;19.33;;;;;;;;;;5058083;28;20088;-59
2023/04/22 06:45:58;;;;;;;28.23;19.23;;;;;;;;;;5054847;28;20056;-58
2023/04/22 06:48:26;;;;;;;29.77;19.08;;;;;;;;;;5067825;28;20144;-57
2023/04/22 06:50:53;;;;;;;27.70;19.38;;;;;;;;;;5066620;28;20511;-57
2023/04/22 06:53:19;;;;;;;28.95;20.13;;;;;;;;;;5050749;28;20495;-60
2023/04/22 06:55:45;;;;;;;27.70;19.58;;;;;;;;;;5052412;28;20696;-58
2023/04/22 06:58:12;;;;;;;30.75;22.13;;;;;;;;;;5062804;28;20161;-58
2023/04/22 07:00:38;;;;;;;30.50;19.70;;;;;;;;;;5058255;28;20085;-57
2023/04/22 07:03:04;;;;;;;30.60;21.30;;;;;;;;;;5051367;28;20049;-58
2023/04/22 07:05:31;;;;;;;35.17;22.23;;;;;;;;;;5069761;28;20049;-58
2023/04/22 07:07:57;;;;;;;29.08;21.50;;;;;;;;;;5073596;28;20076;-57
2023/04/22 07:10:24;;;;;;;31.88;22.65;;;;;;;;;;5066833;28;20048;-59
2023/04/22 07:12:50;;;;;;;35.70;22.63;;;;;;;;;;5073485;28;20052;-58
2023/04/22 07:15:16;;;;;;;30.05;22.83;;;;;;;;;;5063900;28;20060;-59
2023/04/22 07:17:43;;;;;;;32.45;22.88;;;;;;;;;;5050843;28;20605;-58
2023/04/22 07:20:09;;;;;;;33.40;23.20;;;;;;;;;;5067879;28;20536;-57
2023/04/22 07:22:36;;;;;;;32.65;21.85;;;;;;;;;;5059256;28;20668;-57
2023/04/22 07:25:02;;;;;;;31.13;22.67;;;;;;;;;;5078898;28;20551;-57
2023/04/22 07:27:29;;;;;;;29.83;21.35;;;;;;;;;;5061723;28;20500;-58
2023/04/22 07:29:55;;;;;;;33.45;21.67;;;;;;;;;;5062923;28;20140;-58
2023/04/22 07:32:21;;;;;;;32.85;22.73;;;;;;;;;;5061306;28;20466;-54
2023/04/22 07:34:48;;;;;;;32.50;21.98;;;;;;;;;;5069673;28;20059;-58
2023/04/22 07:37:14;;;;;;;30.40;21.27;;;;;;;;;;5084333;28;20052;-59
2023/04/22 07:39:41;;;;;;;29.02;20.48;;;;;;;;;;5076726;28;20514;-56
2023/04/22 07:42:08;;;;;;;29.55;21.85;;;;;;;;;;5062975;28;20075;-58
2023/04/22 07:44:34;;;;;;;35.28;24.00;;;;;;;;;;5061116;28;20476;-57
2023/04/22 07:47:04;;;;;;;33.58;23.35;;;;;;;;;;5061545;28;20148;-60
2023/04/22 07:49:30;;;;;;;34.28;23.60;;;;;;;;;;5074805;28;20056;-59
2023/04/22 07:51:56;;;;;;;35.25;23.40;;;;;;;;;;5063245;28;20056;-59
2023/04/22 07:54:23;;;;;;;34.28;24.50;;;;;;;;;;5069928;28;20053;-57
2023/04/22 07:56:49;;;;;;;35.22;25.55;;;;;;;;;;5060725;28;20172;-59
2023/04/22 07:59:15;;;;;;;38.92;27.17;;;;;;;;;;5077212;28;20450;-60
2023/04/22 08:01:42;;;;;;;43.50;29.25;;;;;;;;;;5063604;28;20417;-57
2023/04/22 08:04:08;;;;;;;49.20;30.92;;;;;;;;;;5062373;28;20052;-60
2023/04/22 08:06:35;;;;;;;51.63;33.55;;;;;;;;;;5073295;28;20599;-58
2023/04/22 08:09:02;;;;;;;53.28;33.88;;;;;;;;;;5061539;28;20049;-57
2023/04/22 08:11:28;;;;;;;48.22;31.95;;;;;;;;;;5059854;28;20049;-58
2023/04/22 08:13:55;;;;;;;42.33;29.27;;;;;;;;;;5059537;28;20059;-55
2023/04/22 08:16:22;;;;;;;40.00;26.58;;;;;;;;;;5066885;28;20136;-59
2023/04/22 08:18:48;;;;;;;33.55;23.73;;;;;;;;;;5053528;28;20054;-59
2023/04/22 08:21:15;;;;;;;35.30;22.58;;;;;;;;;;5064916;28;20155;-60
2023/04/22 08:23:41;;;;;;;31.38;20.90;;;;;;;;;;5062527;28;20056;-58
2023/04/22 08:26:10;;;;;;;26.90;20.77;;;;;;;;;;5062540;28;20123;-57
2023/04/22 08:28:37;;;;;;;29.52;20.33;;;;;;;;;;5062663;28;20459;-58
2023/04/22 08:31:03;;;;;;;26.20;19.17;;;;;;;;;;5062793;28;20053;-58
2023/04/22 08:33:29;;;;;;;27.48;20.70;;;;;;;;;;5059665;28;20424;-57
2023/04/22 08:35:56;;;;;;;27.33;20.05;;;;;;;;;;5061145;28;20049;-56
2023/04/22 08:38:23;;;;;;;25.17;18.60;;;;;;;;;;5060875;28;20409;-58
2023/04/22 08:40:49;;;;;;;23.92;17.73;;;;;;;;;;5060368;28;20071;-58
2023/04/22 08:43:16;;;;;;;24.45;18.45;;;;;;;;;;5053087;28;20052;-58
2023/04/22 08:45:43;;;;;;;23.17;17.42;;;;;;;;;;5059699;28;20057;-59
2023/04/22 08:48:11;;;;;;;25.35;17.63;;;;;;;;;;5060911;28;20056;-57
2023/04/22 08:50:38;;;;;;;21.95;17.65;;;;;;;;;;5061309;28;20706;-56
2023/04/22 08:53:04;;;;;;;24.10;17.98;;;;;;;;;;5060607;28;20053;-57
2023/04/22 08:55:31;;;;;;;20.88;16.77;;;;;;;;;;5062120;28;20073;-56
2023/04/22 08:57:59;;;;;;;23.40;17.65;;;;;;;;;;5062070;28;20088;-59
2023/04/22 09:00:25;;;;;;;23.33;17.35;;;;;;;;;;5061482;28;20055;-57
2023/04/22 09:02:52;;;;;;;22.10;16.20;;;;;;;;;;5062651;28;20532;-58
2023/04/22 09:05:21;;;;;;;23.48;16.90;;;;;;;;;;5060258;28;20061;-58
2023/04/22 09:07:47;;;;;;;23.75;16.27;;;;;;;;;;5058858;28;20049;-58
2023/04/22 09:10:14;;;;;;;21.70;14.88;;;;;;;;;;5057377;28;20052;-57
2023/04/22 09:12:40;;;;;;;16.52;14.60;;;;;;;;;;5061720;28;20053;-57
2023/04/22 09:15:07;;;;;;;19.60;16.02;;;;;;;;;;5061126;28;20627;-57
2023/04/22 09:17:37;;;;;;;17.50;14.07;;;;;;;;;;5057147;28;20541;-58
2023/04/22 09:20:04;;;;;;;20.00;14.40;;;;;;;;;;5066022;28;20170;-57
2023/04/22 09:22:38;;;;;;;16.10;12.38;;;;;;;;;;5060059;28;20061;-58
2023/04/22 09:25:05;;;;;;;17.98;13.85;;;;;;;;;;5061898;28;20276;-58
2023/04/22 09:27:34;;;;;;;18.63;14.18;;;;;;;;;;5052197;28;20155;-57
2023/04/22 09:30:00;;;;;;;18.45;14.55;;;;;;;;;;5059262;28;20137;-59
2023/04/22 09:32:27;;;;;;;19.05;14.25;;;;;;;;;;5061842;28;20538;-57
2023/04/22 09:34:54;;;;;;;16.73;13.32;;;;;;;;;;5061807;28;20053;-56
2023/04/22 09:37:23;;;;;;;16.92;13.57;;;;;;;;;;5062419;28;20045;-58
2023/04/22 09:39:53;;;;;;;18.02;12.52;;;;;;;;;;5059250;28;20103;-59
2023/04/22 09:42:20;;;;;;;18.98;12.80;;;;;;;;;;5060165;28;20053;-57
2023/04/22 09:44:47;;;;;;;15.57;13.18;;;;;;;;;;5061179;28;20719;-57
2023/04/22 09:47:13;;;;;;;14.57;12.00;;;;;;;;;;5061910;28;20056;-57
2023/04/22 09:49:44;;;;;;;15.32;11.45;;;;;;;;;;5058891;28;20049;-58
2023/04/22 09:52:20;;;;;;;14.55;12.18;;;;;;;;;;5060366;28;20499;-58
2023/04/22 09:54:50;;;;;;;13.00;11.52;;;;;;;;;;5061600;28;20558;-58
2023/04/22 09:57:17;;;;;;;13.52;11.27;;;;;;;;;;5061457;28;20144;-55
2023/04/22 09:59:43;;;;;;;16.80;11.43;;;;;;;;;;5062705;28;20107;-59
2023/04/22 10:02:10;;;;;;;14.20;11.25;;;;;;;;;;5058099;28;20053;-57
2023/04/22 10:04:36;;;;;;;15.52;11.73;;;;;;;;;;5060580;28;20089;-59
2023/04/22 10:07:03;;;;;;;15.30;12.13;;;;;;;;;;5060831;28;20081;-57
2023/04/22 10:09:29;;;;;;;16.38;12.88;;;;;;;;;;5060399;28;20566;-59
2023/04/22 10:11:57;;;;;;;17.02;12.52;;;;;;;;;;5062135;28;20053;-58
2023/04/22 10:14:24;;;;;;;15.68;12.38;;;;;;;;;;5061477;28;20060;-58
2023/04/22 10:16:52;;;;;;;17.05;13.82;;;;;;;;;;5061748;28;20504;-58
2023/04/22 10:19:19;;;;;;;16.13;13.15;;;;;;;;;;5059378;28;20937;-54
2023/04/22 10:21:47;;;;;;;17.10;13.63;;;;;;;;;;5064749;28;20061;-57
2023/04/22 10:24:15;;;;;;;19.98;13.95;;;;;;;;;;5064139;28;20076;-57
2023/04/22 10:26:48;;;;;;;19.80;13.55;;;;;;;;;;5064639;28;20088;-57
2023/04/22 10:29:16;;;;;;;15.65;13.10;;;;;;;;;;5064019;28;20056;-57
2023/04/22 10:31:44;;;;;;;15.60;13.50;;;;;;;;;;5064477;28;20549;-57
2023/04/22 10:34:12;;;;;;;14.38;12.65;;;;;;;;;;5056457;28;20059;-55
2023/04/22 10:36:55;;;;;;;14.05;12.27;;;;;;;;;;5060880;28;20178;-57
2023/04/22 10:39:22;;;;;;;17.77;12.48;;;;;;;;;;5068804;28;20136;-57
2023/04/22 10:41:52;;;;;;;13.52;12.05;;;;;;;;;;5062417;28;20061;-57
2023/04/22 10:44:20;;;;;;;16.85;12.88;;;;;;;;;;5058894;28;20052;-57
2023/04/22 10:46:50;;;;;;;13.98;12.45;;;;;;;;;;5062745;28;20140;-57
2023/04/22 10:49:21;;;;;;;16.02;12.65;;;;;;;;;;5065285;28;20052;-57
2023/04/22 10:51:48;;;;;;;14.95;12.45;;;;;;;;;;5067154;28;20068;-58
2023/04/22 10:54:35;;;;;;;15.90;12.63;;;;;;;;;;5063712;28;20459;-56
2023/04/22 10:57:02;;;;;;;14.23;11.85;;;;;;;;;;5058284;28;20049;-57
2023/04/22 10:59:30;;;;;;;15.40;12.32;;;;;;;;;;5064767;28;20052;-57
2023/04/22 11:02:04;;;;;;;12.93;10.90;;;;;;;;;;5072004;28;20404;-57
2023/04/22 11:04:30;;;;;;;13.25;11.50;;;;;;;;;;5065791;28;20044;-56
2023/04/22 11:07:12;;;;;;;15.02;11.32;;;;;;;;;;5065699;28;20084;-57
2023/04/22 11:09:39;;;;;;;15.75;11.40;;;;;;;;;;5063389;28;20056;-58
2023/04/22 11:12:24;;;;;;;15.07;11.82;;;;;;;;;;5061006;28;20709;-56
2023/04/22 11:14:51;;;;;;;13.90;12.40;;;;;;;;;;5083036;28;20059;-57
2023/04/22 11:17:18;;;;;;;14.85;12.18;;;;;;;;;;5060652;28;20304;-56
2023/04/22 11:19:45;;;;;;;14.75;11.55;;;;;;;;;;5079948;28;20142;-56
2023/04/22 11:22:13;;;;;;;15.48;12.00;;;;;;;;;;5063595;28;20147;-58
2023/04/22 11:24:39;;;;;;;13.07;10.98;;;;;;;;;;5067311;28;20504;-55
2023/04/22 11:27:05;;;;;;;13.93;10.27;;;;;;;;;;5074982;28;20056;-61
2023/04/22 11:29:32;;;;;;;11.55;9.90;;;;;;;;;;5080222;28;20534;-33
2023/04/22 11:31:59;;;;;;;11.95;9.63;;;;;;;;;;5057267;28;20063;-58
2023/04/22 11:34:26;;;;;;;16.77;11.32;;;;;;;;;;5063509;28;20060;-58
2023/04/22 11:36:52;;;;;;;12.70;10.65;;;;;;;;;;5068223;28;20049;-58
2023/04/22 11:39:19;;;;;;;13.10;10.90;;;;;;;;;;5058945;28;20048;-58
2023/04/22 11:41:45;;;;;;;13.38;11.73;;;;;;;;;;5080386;28;20534;-58
2023/04/22 11:44:12;;;;;;;15.93;12.52;;;;;;;;;;5061273;28;20049;-58
2023/04/22 11:46:39;;;;;;;14.23;12.30;;;;;;;;;;5069504;28;20164;-58
2023/04/22 11:49:12;;;;;;;16.80;12.27;;;;;;;;;;5069591;28;20068;-60
2023/04/22 11:51:51;;;;;;;18.17;14.75;;;;;;;;;;5067411;28;20132;-59
2023/04/22 11:54:29;;;;;;;16.17;13.32;;;;;;;;;;5058175;28;20527;-58
2023/04/22 11:56:55;;;;;;;17.42;12.82;;;;;;;;;;5068943;28;20472;-58
2023/04/22 11:59:25;;;;;;;17.48;14.52;;;;;;;;;;5068195;28;20719;-58
2023/04/22 12:01:51;;;;;;;18.25;13.57;;;;;;;;;;5058960;28;20060;-59
2023/04/22 12:04:20;;;;;;;16.42;13.60;;;;;;;;;;5063791;28;20511;-60
2023/04/22 12:06:46;;;;;;;18.52;14.45;;;;;;;;;;5067487;28;20059;-57
2023/04/22 12:09:12;;;;;;;17.05;14.15;;;;;;;;;;5066053;28;20052;-60
2023/04/22 12:11:39;;;;;;;16.30;13.15;;;;;;;;;;5065189;28;20404;-57
2023/04/22 12:14:05;;;;;;;17.73;15.30;;;;;;;;;;5067291;28;20100;-60
2023/04/22 12:16:38;;;;;;;17.80;15.40;;;;;;;;;;5071429;28;20532;-60
2023/04/22 12:19:05;;;;;;;18.48;14.45;;;;;;;;;;5067026;28;21520;-59
2023/04/22 12:21:31;;;;;;;18.05;14.57;;;;;;;;;;5061203;28;20064;-57
2023/04/22 12:24:05;;;;;;;20.05;14.77;;;;;;;;;;5062710;28;20049;-58
2023/04/22 12:26:31;;;;;;;16.95;15.15;;;;;;;;;;5062878;28;20059;-59
2023/04/22 12:28:59;;;;;;;17.70;13.73;;;;;;;;;;5063693;28;20057;-58
2023/04/22 12:31:25;;;;;;;15.93;13.90;;;;;;;;;;5061820;28;20055;-57
2023/04/22 12:33:52;;;;;;;16.63;14.55;;;;;;;;;;5061253;28;20118;-56
2023/04/22 12:36:22;;;;;;;17.88;14.20;;;;;;;;;;5061297;28;20049;-57
2023/04/22 12:38:49;;;;;;;18.50;14.90;;;;;;;;;;5063033;28;20083;-58
2023/04/22 12:41:16;;;;;;;16.25;14.25;;;;;;;;;;5062820;28;20496;-59
2023/04/22 12:43:42;;;;;;;19.27;15.13;;;;;;;;;;5061317;28;20103;-59
2023/04/22 12:46:09;;;;;;;17.27;14.88;;;;;;;;;;5077640;28;20131;-58
2023/04/22 12:48:38;;;;;;;20.75;15.88;;;;;;;;;;5069311;28;20064;-59
2023/04/22 12:51:05;;;;;;;21.08;15.30;;;;;;;;;;5056609;28;20859;-58
2023/04/22 12:53:32;;;;;;;21.17;16.70;;;;;;;;;;5051498;28;20050;-58
2023/04/22 12:55:59;;;;;;;22.42;17.52;;;;;;;;;;5059444;28;20534;-58
2023/04/22 12:58:25;;;;;;;21.83;16.92;;;;;;;;;;5054552;28;20064;-58
2023/04/22 13:00:52;;;;;;;25.77;17.02;;;;;;;;;;5069555;28;20103;-61
2023/04/22 13:03:18;;;;;;;20.83;17.00;;;;;;;;;;5065384;28;20451;-61
2023/04/22 13:05:45;;;;;;;21.13;18.02;;;;;;;;;;5061646;28;20061;-61
2023/04/22 13:08:11;;;;;;;24.35;17.27;;;;;;;;;;5048728;28;20055;-61
2023/04/22 13:10:37;;;;;;;26.20;18.65;;;;;;;;;;5067130;28;20053;-61
2023/04/22 13:13:05;;;;;;;24.25;18.38;;;;;;;;;;5060970;28;20071;-60
2023/04/22 13:15:44;;;;;;;24.48;18.95;;;;;;;;;;5062911;28;20857;-60
2023/04/22 13:18:10;;;;;;;22.95;18.05;;;;;;;;;;5066421;28;20551;-61
2023/04/22 13:20:37;;;;;;;23.45;18.35;;;;;;;;;;5061132;28;20440;-59
2023/04/22 13:23:03;;;;;;;23.90;19.35;;;;;;;;;;5051912;28;20049;-58
2023/04/22 13:25:30;;;;;;;24.55;18.73;;;;;;;;;;5054521;28;20053;-58
2023/04/22 13:27:57;;;;;;;23.92;18.83;;;;;;;;;;5061319;28;20548;-59
2023/04/22 13:30:23;;;;;;;22.08;17.80;;;;;;;;;;5060242;28;20065;-58
2023/04/22 13:32:50;;;;;;;23.60;18.75;;;;;;;;;;5063938;28;20072;-61
2023/04/22 13:35:17;;;;;;;25.90;19.67;;;;;;;;;;5067027;28;20521;-61
2023/04/22 13:37:44;;;;;;;25.17;19.17;;;;;;;;;;5060828;28;20460;-58
2023/04/22 13:40:11;;;;;;;26.63;19.52;;;;;;;;;;5067103;28;20078;-57
2023/04/22 13:42:37;;;;;;;27.65;19.40;;;;;;;;;;5054127;28;20549;-58
2023/04/22 13:45:04;;;;;;;24.17;18.73;;;;;;;;;;5061744;28;20059;-58
2023/04/22 13:47:31;;;;;;;26.77;19.90;;;;;;;;;;5061354;28;20453;-57
2023/04/22 13:49:57;;;;;;;25.27;18.98;;;;;;;;;;5060857;28;20055;-59
2023/04/22 13:52:23;;;;;;;26.38;20.42;;;;;;;;;;5057740;28;20049;-59
2023/04/22 13:54:50;;;;;;;25.77;20.70;;;;;;;;;;5069959;28;20516;-57
2023/04/22 13:57:16;;;;;;;29.10;20.52;;;;;;;;;;5060884;28;20123;-59
2023/04/22 13:59:43;;;;;;;23.42;20.00;;;;;;;;;;5061611;28;20138;-61
2023/04/22 14:02:09;;;;;;;28.15;20.33;;;;;;;;;;5065541;28;20535;-59
2023/04/22 14:04:36;;;;;;;26.75;20.95;;;;;;;;;;5063137;28;20143;-59
2023/04/22 14:07:02;;;;;;;26.10;20.30;;;;;;;;;;5059616;28;20406;-59
2023/04/22 14:09:29;;;;;;;26.90;20.67;;;;;;;;;;5060411;28;20056;-55
2023/04/22 14:11:56;;;;;;;25.25;20.10;;;;;;;;;;5061277;28;20061;-59
2023/04/22 14:14:22;;;;;;;26.95;20.42;;;;;;;;;;5066308;28;20144;-61
2023/04/22 14:16:48;;;;;;;27.48;20.48;;;;;;;;;;5059112;28;20049;-58
2023/04/22 14:19:15;;;;;;;26.90;20.92;;;;;;;;;;5063322;28;20144;-58